Time;durP1;ratioP1;P1;durP2;ratioP2;P2;SDS_P1;SDS_P2;PMS_P1;PMS_P2;Temp;Humidity;BMP_temperature;BMP_pressure;BME280_temperature;BME280_humidity;BME280_pressure;Samples;Min_cycle;Max_cycle;Signal;HPM_P1;HPM_P2
2022/11/22 00:02:53;;;;;;;20.85;18.30;;;;;;;-0.46;100.00;98408.13;10466508;28;20037;-71
2022/11/22 00:07:55;;;;;;;18.85;17.17;;;;;;;-0.60;100.00;98408.31;10466550;28;20045;-70
2022/11/22 00:12:56;;;;;;;23.00;19.75;;;;;;;-0.53;100.00;98399.63;10466531;28;20091;-70
2022/11/22 00:17:58;;;;;;;22.30;20.15;;;;;;;-0.43;100.00;98391.75;10462865;28;20069;-70
2022/11/22 00:23:00;;;;;;;22.80;19.20;;;;;;;-0.48;100.00;98381.50;10463497;28;20082;-70
2022/11/22 00:28:02;;;;;;;22.08;19.90;;;;;;;-0.48;100.00;98380.66;10444898;28;20087;-70
2022/11/22 00:33:03;;;;;;;21.80;19.80;;;;;;;-0.48;100.00;98367.75;10463772;28;20041;-69
2022/11/22 00:38:05;;;;;;;22.98;20.63;;;;;;;-0.65;100.00;98355.06;10462109;28;20045;-70
2022/11/22 00:43:07;;;;;;;21.27;19.10;;;;;;;-0.69;100.00;98362.00;10463628;28;20053;-71
2022/11/22 00:48:09;;;;;;;20.52;18.73;;;;;;;-0.52;100.00;98362.63;10461835;28;20461;-71
2022/11/22 00:53:10;;;;;;;23.52;20.65;;;;;;;-0.39;100.00;98370.19;10461209;28;20090;-69
2022/11/22 00:58:12;;;;;;;21.30;19.25;;;;;;;-0.47;100.00;98375.47;10443551;28;20402;-69
2022/11/22 01:03:13;;;;;;;23.15;20.80;;;;;;;-0.30;100.00;98375.22;10460996;28;20087;-69
2022/11/22 01:08:15;;;;;;;23.33;21.00;;;;;;;-0.31;100.00;98373.50;10443200;28;20468;-68
2022/11/22 01:13:17;;;;;;;21.90;19.92;;;;;;;-0.43;100.00;98374.53;10460530;28;20049;-67
2022/11/22 01:18:18;;;;;;;23.35;20.95;;;;;;;-0.31;100.00;98369.22;10462696;28;20132;-68
2022/11/22 01:23:20;;;;;;;23.83;20.83;;;;;;;-0.36;100.00;98359.81;10460717;28;20037;-68
2022/11/22 01:28:22;;;;;;;21.88;19.60;;;;;;;-0.23;100.00;98345.84;10442032;28;20045;-68
2022/11/22 01:33:24;;;;;;;21.45;19.35;;;;;;;-0.06;100.00;98337.81;10460326;28;20139;-67
2022/11/22 01:38:26;;;;;;;21.65;19.45;;;;;;;-0.18;100.00;98345.75;10460157;28;20041;-67
2022/11/22 01:43:28;;;;;;;21.50;19.48;;;;;;;-0.12;100.00;98340.50;10459444;28;20071;-68
2022/11/22 01:48:48;;;;;;;21.17;19.23;;;;;;;-0.08;100.00;98342.19;10459245;28;20091;-68
2022/11/22 01:53:52;;;;;;;20.38;18.45;;;;;;;-0.11;100.00;98345.66;10441984;28;20387;-68
2022/11/22 01:59:01;;;;;;;21.67;19.77;;;;;;;-0.11;100.00;98337.91;10441962;28;20052;-68
2022/11/22 02:04:08;;;;;;;23.15;21.10;;;;;;;-0.14;100.00;98340.53;10459491;28;20394;-68
2022/11/22 02:09:11;;;;;;;22.48;20.35;;;;;;;0.08;100.00;98340.19;10459046;28;20037;-68
2022/11/22 02:14:15;;;;;;;21.10;19.17;;;;;;;-0.20;100.00;98338.06;10458283;28;20049;-68
2022/11/22 02:19:35;;;;;;;22.42;20.50;;;;;;;-0.32;100.00;98333.06;10440497;28;20041;-69
2022/11/22 02:24:45;;;;;;;19.75;17.95;;;;;;;-0.59;100.00;98322.28;10442492;28;20049;-69
2022/11/22 02:29:47;;;;;;;20.85;18.90;;;;;;;-0.49;100.00;98328.16;10440320;28;20037;-68
2022/11/22 02:34:50;;;;;;;20.52;18.77;;;;;;;-0.69;100.00;98318.13;10457245;28;20049;-68
2022/11/22 02:40:01;;;;;;;22.45;19.92;;;;;;;-0.61;100.00;98321.47;10457684;28;20106;-68
2022/11/22 02:45:03;;;;;;;21.15;19.27;;;;;;;-0.86;100.00;98313.19;10461154;28;20087;-69
2022/11/22 02:50:06;;;;;;;21.20;19.17;;;;;;;-0.71;100.00;98306.97;10458255;28;20402;-70
2022/11/22 02:55:08;;;;;;;22.05;20.15;;;;;;;-0.89;100.00;98297.75;10459150;28;20040;-69
2022/11/22 03:00:10;;;;;;;22.15;19.92;;;;;;;-0.64;100.00;98287.94;10424189;28;20072;-69
2022/11/22 03:05:12;;;;;;;22.30;20.20;;;;;;;-0.95;100.00;98287.53;10459171;28;20045;-69
2022/11/22 03:10:14;;;;;;;22.88;20.98;;;;;;;-1.06;100.00;98292.84;10457856;28;20041;-69
2022/11/22 03:15:16;;;;;;;24.55;22.05;;;;;;;-1.23;100.00;98299.09;10457971;28;20044;-69
2022/11/22 03:20:18;;;;;;;25.55;22.70;;;;;;;-1.32;100.00;98303.47;10458808;28;20037;-69
2022/11/22 03:25:20;;;;;;;25.00;21.40;;;;;;;-1.25;100.00;98301.66;10459503;28;20049;-69
2022/11/22 03:30:21;;;;;;;23.58;21.15;;;;;;;-1.34;100.00;98307.78;10456066;28;20486;-69
2022/11/22 03:35:23;;;;;;;25.83;23.45;;;;;;;-1.25;100.00;98304.25;10457304;28;20072;-69
2022/11/22 03:40:25;;;;;;;26.85;23.77;;;;;;;-1.28;100.00;98301.72;10457985;28;20049;-69
2022/11/22 03:45:28;;;;;;;26.73;23.67;;;;;;;-1.22;100.00;98291.31;10456817;28;20049;-69
2022/11/22 03:50:30;;;;;;;29.63;24.33;;;;;;;-0.94;100.00;98278.91;10459312;28;20040;-69
2022/11/22 03:55:32;;;;;;;30.33;25.52;;;;;;;-0.76;100.00;98276.06;10464976;28;20056;-69
2022/11/22 04:00:35;;;;;;;32.03;25.05;;;;;;;-0.61;100.00;98282.75;10464640;28;20091;-68
2022/11/22 04:05:36;;;;;;;31.08;25.55;;;;;;;-0.41;100.00;98273.84;10463904;28;20047;-69
2022/11/22 04:10:38;;;;;;;28.25;25.27;;;;;;;-0.28;100.00;98277.94;10446413;28;20037;-69
2022/11/22 04:15:40;;;;;;;28.98;25.98;;;;;;;-0.50;100.00;98264.50;10463418;28;20406;-70
2022/11/22 04:26:02;;;;;;;27.98;25.05;;;;;;;-0.36;100.00;98259.13;10463729;28;20052;-70
2022/11/22 04:36:23;;;;;;;30.65;25.10;;;;;;;-0.16;100.00;98251.06;10462999;28;20348;-70
2022/11/22 04:41:25;;;;;;;25.27;22.65;;;;;;;-0.27;100.00;98254.69;10462868;28;20418;-69
2022/11/22 04:46:27;;;;;;;25.35;22.98;;;;;;;-0.04;100.00;98249.13;10446986;28;20513;-70
2022/11/22 04:56:49;;;;;;;24.02;21.65;;;;;;;-0.43;100.00;98240.31;10444535;28;20044;-70
2022/11/22 05:01:51;;;;;;;25.95;23.13;;;;;;;-0.14;100.00;98231.22;10461797;28;20049;-70
2022/11/22 05:06:55;;;;;;;24.60;22.05;;;;;;;0.09;100.00;98220.44;10442669;28;20049;-70
2022/11/22 05:11:57;;;;;;;23.63;21.48;;;;;;;0.16;100.00;98224.63;10444897;28;20049;-70
2022/11/22 05:16:58;;;;;;;22.92;20.92;;;;;;;0.00;100.00;98226.66;10460865;28;20056;-70
2022/11/22 05:22:00;;;;;;;23.35;20.98;;;;;;;0.23;100.00;98232.25;10460970;28;20044;-70
2022/11/22 05:27:02;;;;;;;21.33;19.08;;;;;;;0.40;100.00;98224.16;10443919;28;20429;-70
2022/11/22 05:32:04;;;;;;;21.02;19.23;;;;;;;0.41;100.00;98238.78;10459823;28;20091;-69
2022/11/22 05:37:05;;;;;;;20.63;18.73;;;;;;;0.41;100.00;98243.13;10460912;28;20548;-69
2022/11/22 05:42:07;;;;;;;20.92;19.05;;;;;;;0.54;100.00;98247.16;10425726;28;20052;-69
2022/11/22 05:47:09;;;;;;;20.83;18.98;;;;;;;0.62;100.00;98244.41;10442307;28;20506;-70
2022/11/22 05:52:11;;;;;;;20.52;18.95;;;;;;;0.66;100.00;98240.88;10459941;28;20087;-69
2022/11/22 05:57:13;;;;;;;20.75;18.88;;;;;;;0.72;100.00;98238.19;10460495;28;20075;-69
2022/11/22 06:02:14;;;;;;;22.65;20.50;;;;;;;0.62;100.00;98245.28;10459482;28;20048;-70
2022/11/22 06:07:16;;;;;;;21.95;19.85;;;;;;;0.59;100.00;98249.66;10440808;28;20047;-69
2022/11/22 06:12:18;;;;;;;20.50;18.75;;;;;;;0.89;100.00;98249.00;10459056;28;20089;-69
2022/11/22 06:17:19;;;;;;;18.50;16.90;;;;;;;1.05;100.00;98271.94;10458797;28;20052;-70
2022/11/22 06:22:21;;;;;;;19.08;17.45;;;;;;;0.97;100.00;98273.00;10459424;28;20071;-70
2022/11/22 06:27:23;;;;;;;18.88;17.10;;;;;;;1.13;100.00;98270.06;10458259;28;20483;-69
2022/11/22 06:32:25;;;;;;;18.35;16.85;;;;;;;1.13;100.00;98275.22;10439698;28;20473;-70
2022/11/22 06:37:27;;;;;;;19.00;17.48;;;;;;;1.20;100.00;98275.06;10439781;28;20049;-70
2022/11/22 06:42:29;;;;;;;19.73;18.05;;;;;;;1.12;100.00;98276.13;10440970;28;20397;-70
2022/11/22 06:47:32;;;;;;;18.73;17.13;;;;;;;1.21;100.00;98286.28;10457182;28;20073;-70
2022/11/22 06:52:33;;;;;;;19.33;17.80;;;;;;;1.22;100.00;98287.97;10407658;23;20042;-70
2022/11/22 06:57:35;;;;;;;18.58;16.98;;;;;;;1.30;100.00;98295.56;10416485;28;20080;-70
2022/11/22 07:02:37;;;;;;;19.20;17.40;;;;;;;1.27;100.00;98291.28;10416854;28;20041;-71
2022/11/22 07:07:38;;;;;;;19.95;18.17;;;;;;;1.42;100.00;98292.72;10416976;28;20048;-69
2022/11/22 07:12:40;;;;;;;19.30;17.38;;;;;;;1.41;100.00;98302.19;10458679;28;20037;-69
2022/11/22 07:17:42;;;;;;;18.90;17.40;;;;;;;1.36;100.00;98303.19;10459029;28;20098;-69
2022/11/22 07:22:46;;;;;;;19.08;17.60;;;;;;;1.41;100.00;98302.19;10440724;28;20045;-69
2022/11/22 07:27:50;;;;;;;19.25;17.58;;;;;;;1.60;100.00;98306.97;10444888;28;20052;-69
2022/11/22 07:32:52;;;;;;;19.80;17.52;;;;;;;1.50;100.00;98317.50;10465551;28;20041;-69
2022/11/22 07:37:54;;;;;;;69.78;39.08;;;;;;;1.37;100.00;98323.84;10465438;28;20453;-69
2022/11/22 07:42:55;;;;;;;21.75;20.05;;;;;;;1.56;100.00;98337.25;10447624;28;20087;-69
2022/11/22 07:48:00;;;;;;;22.80;20.63;;;;;;;1.62;100.00;98329.34;10465355;28;20091;-69
2022/11/22 07:53:02;;;;;;;22.33;20.42;;;;;;;1.64;100.00;98325.00;10464759;28;20099;-69
2022/11/22 07:58:03;;;;;;;20.45;18.60;;;;;;;1.76;100.00;98336.78;10447899;28;20048;-68
2022/11/22 08:03:08;;;;;;;20.88;19.17;;;;;;;1.77;100.00;98341.06;10464842;28;20049;-70
2022/11/22 08:08:10;;;;;;;22.10;20.08;;;;;;;1.82;100.00;98341.00;10446884;28;20049;-70
2022/11/22 08:13:12;;;;;;;21.48;19.85;;;;;;;1.91;100.00;98351.13;10464512;28;20055;-69
2022/11/22 08:18:14;;;;;;;19.67;18.08;;;;;;;2.24;100.00;98349.44;10446780;28;20049;-70
2022/11/22 08:23:16;;;;;;;19.48;17.85;;;;;;;2.15;100.00;98347.09;10464109;28;20041;-70
2022/11/22 08:28:18;;;;;;;21.65;19.70;;;;;;;2.33;100.00;98338.00;10447546;28;20059;-69
2022/11/22 08:33:20;;;;;;;21.17;18.35;;;;;;;2.36;100.00;98333.59;10464250;28;20544;-70
2022/11/22 08:38:21;;;;;;;19.40;17.52;;;;;;;2.48;100.00;98345.38;10462983;28;20075;-70
2022/11/22 08:43:24;;;;;;;18.20;16.85;;;;;;;2.42;100.00;98367.13;10458229;28;20044;-70
2022/11/22 08:48:28;;;;;;;17.98;16.42;;;;;;;2.51;100.00;98373.81;10427614;28;20106;-69
2022/11/22 08:53:32;;;;;;;18.05;16.55;;;;;;;2.70;100.00;98363.81;10459529;28;20041;-70
2022/11/22 08:58:34;;;;;;;18.02;16.65;;;;;;;2.72;100.00;98369.81;10461366;28;20041;-70
2022/11/22 09:03:36;;;;;;;17.30;15.80;;;;;;;2.91;99.55;98378.78;10442776;28;20057;-71
2022/11/22 09:08:38;;;;;;;16.52;15.23;;;;;;;3.00;98.75;98372.50;10461628;28;20128;-68
2022/11/22 09:13:46;;;;;;;18.02;16.63;;;;;;;3.01;98.92;98389.75;10460355;28;20126;-68
2022/11/22 09:18:48;;;;;;;16.60;15.10;;;;;;;3.23;95.43;98388.31;10460679;28;20110;-67
2022/11/22 09:23:52;;;;;;;15.80;14.52;;;;;;;3.19;97.14;98397.06;10461141;28;20044;-70
2022/11/22 09:28:55;;;;;;;14.70;13.50;;;;;;;3.25;95.31;98401.22;10460551;28;20048;-69
2022/11/22 09:33:57;;;;;;;14.48;13.38;;;;;;;3.40;94.63;98410.31;10461519;28;20064;-70
2022/11/22 09:38:59;;;;;;;16.25;14.65;;;;;;;3.35;96.32;98402.66;10462068;28;20052;-69
2022/11/22 09:44:03;;;;;;;19.25;13.55;;;;;;;3.53;94.40;98414.25;10460926;28;20037;-69
2022/11/22 09:49:27;;;;;;;13.40;12.40;;;;;;;3.74;93.13;98405.84;10459926;28;20048;-70
2022/11/22 09:54:39;;;;;;;14.40;13.25;;;;;;;3.53;93.36;98393.47;10459942;28;20044;-69
2022/11/22 10:06:34;;;;;;;14.50;13.40;;;;;;;3.53;93.56;98419.47;10459272;28;20108;-69
2022/11/22 10:11:48;;;;;;;13.18;12.13;;;;;;;3.72;91.34;98423.25;10459919;28;20060;-69
2022/11/22 10:17:18;;;;;;;13.10;12.10;;;;;;;3.67;90.95;98432.88;10459311;28;20110;-69
2022/11/22 10:22:20;;;;;;;15.20;14.00;;;;;;;3.59;91.90;98431.44;10455293;28;20041;-68
2022/11/22 10:27:22;;;;;;;14.10;13.10;;;;;;;3.70;92.29;98435.41;10438185;28;20053;-68
2022/11/22 10:32:28;;;;;;;12.73;11.70;;;;;;;3.86;89.50;98446.22;10456424;28;20501;-69
2022/11/22 10:37:52;;;;;;;12.70;11.60;;;;;;;3.75;90.41;98438.72;10440804;28;20515;-69
2022/11/22 10:43:30;;;;;;;11.68;10.70;;;;;;;4.17;86.46;98440.91;10438682;28;20048;-68
2022/11/22 10:48:42;;;;;;;12.63;11.73;;;;;;;4.39;87.01;98427.25;10455979;28;20057;-68
2022/11/22 10:53:58;;;;;;;10.93;10.10;;;;;;;4.88;84.15;98430.81;10454926;28;20056;-65
2022/11/22 10:59:16;;;;;;;11.77;10.88;;;;;;;5.70;78.91;98427.81;10439042;28;20045;-68
2022/11/22 11:04:19;;;;;;;11.15;10.27;;;;;;;6.40;75.13;98432.06;10438552;28;20041;-70
2022/11/22 11:10:03;;;;;;;12.10;11.15;;;;;;;5.55;76.81;98442.28;10455333;28;20047;-69
2022/11/22 11:15:29;;;;;;;12.43;11.52;;;;;;;5.12;79.74;98445.56;10288523;28;20070;-68
2022/11/22 11:20:37;;;;;;;12.10;11.10;;;;;;;4.87;82.09;98431.69;10289085;28;20065;-66
2022/11/22 11:25:42;;;;;;;14.75;13.65;;;;;;;4.67;84.05;98430.63;10290635;28;20065;-68
2022/11/22 11:31:17;;;;;;;15.38;14.27;;;;;;;4.32;85.62;98426.56;10290393;28;20154;-68
2022/11/22 11:36:23;;;;;;;16.50;15.30;;;;;;;4.17;85.92;98421.88;10278022;28;20054;-68
2022/11/22 11:41:31;;;;;;;17.77;16.48;;;;;;;4.16;87.53;98417.53;10289643;28;20050;-67
2022/11/22 11:46:39;;;;;;;18.55;17.25;;;;;;;4.19;86.90;98417.47;10420684;28;20061;-68
2022/11/22 11:51:52;;;;;;;18.13;16.73;;;;;;;4.09;87.81;98401.31;10456855;28;20041;-66
2022/11/22 11:56:55;;;;;;;18.38;17.02;;;;;;;4.23;85.64;98398.25;10455338;28;20052;-67
2022/11/22 12:02:12;;;;;;;19.45;17.88;;;;;;;3.90;89.20;98407.97;10439973;28;20041;-67
2022/11/22 12:07:17;;;;;;;;;;;;;;;3.98;88.10;98403.38;10458427;28;20045;-67
2022/11/22 12:12:32;;;;;;;18.48;16.98;;;;;;;4.19;85.54;98405.31;10458024;28;19986;-67
2022/11/22 12:17:38;;;;;;;19.83;18.20;;;;;;;4.12;87.94;98415.94;10465182;28;20115;-67
2022/11/22 12:23:31;;;;;;;19.00;17.60;;;;;;;4.19;87.12;98417.47;10446437;28;20040;-67
2022/11/22 12:28:34;;;;;;;20.63;19.13;;;;;;;3.90;88.95;98424.44;10298535;28;20524;-68
2022/11/22 12:33:40;;;;;;;21.60;19.27;;;;;;;3.87;90.00;98421.91;10297059;28;20051;-67
2022/11/22 12:38:44;;;;;;;21.45;19.63;;;;;;;3.90;90.71;98413.19;10296797;28;20432;-67
2022/11/22 12:43:52;;;;;;;22.98;21.02;;;;;;;3.85;91.17;98418.53;10297664;28;20567;-67
2022/11/22 12:48:59;;;;;;;23.27;21.58;;;;;;;3.87;90.77;98418.47;10297117;28;20046;-68
2022/11/22 12:54:08;;;;;;;23.85;21.95;;;;;;;4.05;89.75;98416.13;10480740;22;20049;-71
2022/11/22 12:59:09;;;;;;;24.58;22.55;;;;;;;3.77;92.10;98408.34;10504011;28;20485;-71
2022/11/22 13:04:11;;;;;;;24.88;22.73;;;;;;;3.93;91.08;98407.88;10484886;28;20102;-71
2022/11/22 13:09:32;;;;;;;23.52;21.48;;;;;;;4.04;89.15;98404.03;10502098;28;20070;-71
2022/11/22 13:14:33;;;;;;;25.02;22.58;;;;;;;3.82;90.44;98410.81;10486175;28;20037;-71
2022/11/22 13:19:43;;;;;;;25.27;22.70;;;;;;;3.92;90.39;98422.63;10471892;28;20501;-72
2022/11/22 13:25:06;;;;;;;22.58;20.80;;;;;;;4.00;89.82;98420.63;10503047;28;20040;-71
2022/11/22 13:30:19;;;;;;;22.65;20.85;;;;;;;3.90;90.58;98410.59;10503808;28;20102;-72
2022/11/22 13:35:34;;;;;;;22.77;21.08;;;;;;;3.84;90.90;98415.94;10485822;28;20114;-72
2022/11/22 13:40:40;;;;;;;24.00;21.98;;;;;;;3.97;90.23;98415.53;10490236;28;20032;-72
2022/11/22 13:45:50;;;;;;;21.23;19.23;;;;;;;3.94;89.82;98415.63;10505052;28;20375;-72
2022/11/22 13:50:52;;;;;;;21.33;19.73;;;;;;;3.70;92.38;98404.22;10504473;28;20043;-71
2022/11/22 13:55:55;;;;;;;21.10;19.52;;;;;;;3.71;91.97;98410.28;10504905;28;20045;-73
2022/11/22 14:00:58;;;;;;;20.83;18.95;;;;;;;3.79;92.71;98409.16;10472509;28;20064;-71
2022/11/22 14:06:14;;;;;;;21.38;19.48;;;;;;;3.77;92.53;98402.31;10501843;28;20044;-73
2022/11/22 14:11:29;;;;;;;21.63;19.90;;;;;;;3.74;91.99;98398.03;10487205;28;20542;-73
2022/11/22 14:16:46;;;;;;;19.83;18.27;;;;;;;3.96;90.75;98408.63;10485626;28;20548;-71
2022/11/22 14:21:58;;;;;;;20.02;18.52;;;;;;;3.94;90.27;98412.16;10503143;28;20112;-72
2022/11/22 14:27:07;;;;;;;20.73;19.13;;;;;;;3.71;92.34;98412.88;10504541;28;20544;-71
2022/11/22 14:32:20;;;;;;;21.38;19.67;;;;;;;3.51;93.71;98403.94;10503344;28;20544;-72
2022/11/22 14:37:32;;;;;;;22.55;20.75;;;;;;;3.43;94.80;98410.25;10487130;28;20080;-72
2022/11/22 14:42:35;;;;;;;20.95;19.05;;;;;;;3.65;93.06;98408.72;10487199;28;20045;-72
2022/11/22 14:47:42;;;;;;;19.70;17.90;;;;;;;3.56;92.66;98414.19;10506304;28;20047;-72
2022/11/22 14:52:47;;;;;;;20.93;19.23;;;;;;;3.42;94.16;98424.97;10468207;28;20044;-72
2022/11/22 14:57:59;;;;;;;21.20;19.50;;;;;;;3.37;93.85;98413.03;10482478;28;20044;-71
2022/11/22 15:03:01;;;;;;;21.13;19.35;;;;;;;3.52;93.72;98416.00;10486375;28;20059;-72
2022/11/22 15:08:09;;;;;;;21.45;19.65;;;;;;;3.59;92.21;98421.06;10488949;28;20070;-73
2022/11/22 15:13:49;;;;;;;20.52;18.75;;;;;;;3.44;93.38;98428.38;10501692;28;20086;-72
2022/11/22 15:18:52;;;;;;;20.77;19.17;;;;;;;3.43;93.39;98434.47;10468143;28;20501;-69
2022/11/22 15:24:31;;;;;;;23.20;21.20;;;;;;;3.20;94.48;98434.28;10498887;28;20443;-70
2022/11/22 15:30:28;;;;;;;22.65;20.40;;;;;;;3.20;95.51;98445.50;10500715;28;20112;-70
2022/11/22 15:36:32;;;;;;;21.88;20.00;;;;;;;3.37;94.82;98455.44;10370796;28;20153;-70
2022/11/22 15:41:58;;;;;;;21.17;19.45;;;;;;;3.39;94.21;98458.81;10369907;28;20065;-69
2022/11/22 15:47:20;;;;;;;22.33;20.25;;;;;;;3.54;93.05;98458.41;10372820;28;20061;-70
2022/11/22 15:52:50;;;;;;;22.13;20.42;;;;;;;3.31;94.03;98457.34;10379113;28;20096;-69
2022/11/22 15:58:12;;;;;;;23.83;21.83;;;;;;;3.39;93.62;98461.41;10380118;28;20112;-69
2022/11/22 16:03:23;;;;;;;25.75;23.65;;;;;;;3.42;94.21;98474.34;10379068;28;20058;-69
2022/11/22 16:08:25;;;;;;;28.33;25.52;;;;;;;3.36;95.18;98468.44;10447178;28;20058;-70
2022/11/22 16:13:35;;;;;;;28.88;25.42;;;;;;;3.30;94.54;98469.47;10506669;28;20082;-70
2022/11/22 16:18:41;;;;;;;27.38;24.63;;;;;;;3.36;95.21;98474.47;10507349;28;20045;-70
2022/11/22 16:23:45;;;;;;;27.83;25.17;;;;;;;3.34;94.49;98465.91;10488608;28;20088;-70
2022/11/22 16:28:50;;;;;;;28.13;25.45;;;;;;;3.30;94.71;98461.69;10504130;28;20044;-69
2022/11/22 16:33:54;;;;;;;32.38;27.65;;;;;;;3.29;95.49;98463.44;10489358;28;20048;-69
2022/11/22 16:38:56;;;;;;;29.77;26.70;;;;;;;3.36;95.47;98464.09;10487009;28;20113;-69
2022/11/22 16:44:01;;;;;;;32.95;28.42;;;;;;;3.20;96.43;98475.81;10504520;28;20079;-69
2022/11/22 16:49:18;;;;;;;40.40;29.13;;;;;;;3.32;95.77;98487.59;10503676;28;20090;-69
2022/11/22 16:54:20;;;;;;;31.25;27.75;;;;;;;3.19;96.32;98500.09;10504709;28;20044;-70
2022/11/22 16:59:22;;;;;;;39.42;29.90;;;;;;;3.24;97.43;98498.22;10503314;28;20048;-70
2022/11/22 17:04:25;;;;;;;37.17;30.90;;;;;;;3.21;97.40;98513.88;10503602;28;20444;-70
2022/11/22 17:09:27;;;;;;;41.65;29.52;;;;;;;3.33;96.74;98517.88;10502837;28;20041;-70
2022/11/22 17:14:29;;;;;;;45.60;29.70;;;;;;;3.36;96.10;98536.81;10502585;28;20036;-69
2022/11/22 17:19:31;;;;;;;36.97;30.52;;;;;;;2.98;98.41;98538.69;10484630;28;20053;-70
2022/11/22 17:24:53;;;;;;;41.47;30.92;;;;;;;2.79;100.00;98540.03;10502427;28;20445;-70
2022/11/22 17:30:04;;;;;;;48.45;34.10;;;;;;;2.91;100.00;98539.72;10504606;28;20110;-69
2022/11/22 17:35:08;;;;;;;46.10;32.28;;;;;;;3.15;99.24;98547.78;10502368;28;20474;-69
2022/11/22 17:40:12;;;;;;;38.15;29.25;;;;;;;3.31;97.81;98550.81;10502711;28;20067;-70
2022/11/22 17:45:13;;;;;;;36.72;28.48;;;;;;;3.11;98.46;98540.97;10483722;28;20040;-69
2022/11/22 17:50:15;;;;;;;37.17;29.35;;;;;;;3.01;98.35;98555.91;10501531;28;20048;-69
2022/11/22 17:55:17;;;;;;;32.80;28.50;;;;;;;2.95;99.78;98561.25;10501872;28;20040;-69
2022/11/22 18:00:19;;;;;;;49.20;31.30;;;;;;;3.08;98.99;98572.19;10502110;28;20067;-69
2022/11/22 18:05:27;;;;;;;37.60;29.27;;;;;;;3.03;98.54;98577.50;10501140;28;20051;-70
2022/11/22 18:10:29;;;;;;;39.08;29.48;;;;;;;3.02;99.17;98583.59;10504876;28;20056;-70
2022/11/22 18:15:30;;;;;;;37.47;29.05;;;;;;;2.89;99.70;98587.38;10458869;28;20048;-69
2022/11/22 18:20:55;;;;;;;;;;;;;;;;;;;;;
2022/11/22 18:26:21;;;;;;;31.08;27.33;;;;;;;2.84;100.00;98579.69;10493068;28;20044;-71
2022/11/22 18:31:40;;;;;;;38.90;28.65;;;;;;;3.06;99.79;98574.00;10472988;28;20047;-69
2022/11/22 18:36:53;;;;;;;41.33;29.77;;;;;;;2.94;99.64;98588.09;10461372;28;20045;-69
2022/11/22 18:42:04;;;;;;;32.13;26.23;;;;;;;2.67;100.00;98593.06;10505061;28;20044;-70
2022/11/22 18:47:06;;;;;;;37.75;27.38;;;;;;;2.74;100.00;98599.78;10502148;28;20050;-70
2022/11/22 18:52:08;;;;;;;39.30;29.10;;;;;;;3.02;100.00;98604.34;10521070;22;20075;-81
2022/11/22 18:57:15;;;;;;;37.03;27.40;;;;;;;2.86;100.00;98613.38;10498004;28;20044;-81
2022/11/22 19:02:18;;;;;;;33.15;27.45;;;;;;;2.66;100.00;98617.31;10477580;28;20486;-82
2022/11/22 19:07:20;;;;;;;40.50;27.92;;;;;;;2.80;100.00;98618.72;10494702;28;20075;-81
2022/11/22 19:12:22;;;;;;;39.53;26.30;;;;;;;2.82;99.03;98611.75;10514517;28;20033;-80
2022/11/22 19:17:24;;;;;;;30.13;25.63;;;;;;;2.67;100.00;98603.44;10496231;28;20053;-84
2022/11/22 19:22:25;;;;;;;32.13;24.00;;;;;;;2.64;100.00;98598.31;10500228;28;20151;-81
2022/11/22 19:27:27;;;;;;;28.23;23.88;;;;;;;2.79;99.35;98615.28;10489438;28;20075;-83
2022/11/22 19:32:29;;;;;;;26.75;21.52;;;;;;;2.82;98.38;98628.16;10507751;28;20053;-82
2022/11/22 19:37:31;;;;;;;26.33;22.15;;;;;;;2.74;98.38;98645.66;10507705;28;20101;-80
2022/11/22 19:42:34;;;;;;;25.38;22.65;;;;;;;2.27;100.00;98652.72;10512478;28;20494;-81
2022/11/22 19:47:36;;;;;;;29.50;21.88;;;;;;;2.30;100.00;98659.56;10486513;28;20540;-83
2022/11/22 19:52:38;;;;;;;23.23;20.90;;;;;;;2.55;99.72;98665.09;10503315;28;20044;-84
2022/11/22 19:57:40;;;;;;;25.08;21.15;;;;;;;2.46;100.00;98656.63;10485662;28;20051;-85
2022/11/22 20:02:41;;;;;;;27.15;23.02;;;;;;;2.33;100.00;98664.69;10486424;28;20125;-82
2022/11/22 20:07:43;;;;;;;27.52;22.75;;;;;;;2.16;100.00;98662.44;10519608;28;20119;-83
2022/11/22 20:12:45;;;;;;;28.65;21.70;;;;;;;2.00;100.00;98673.13;10501082;28;20528;-82
2022/11/22 20:17:47;;;;;;;27.92;22.52;;;;;;;2.12;100.00;98658.19;10486663;28;20049;-82
2022/11/22 20:22:49;;;;;;;24.15;21.70;;;;;;;2.30;100.00;98664.75;10502958;28;20044;-81
2022/11/22 20:27:50;;;;;;;26.95;22.00;;;;;;;2.30;100.00;98675.13;10520064;28;20041;-81
2022/11/22 20:32:53;;;;;;;25.33;21.55;;;;;;;2.10;100.00;98668.59;10502968;28;20482;-82
2022/11/22 20:37:59;;;;;;;24.83;21.88;;;;;;;2.21;100.00;98670.97;10502175;28;20107;-80
2022/11/22 20:43:01;;;;;;;23.90;21.35;;;;;;;2.10;100.00;98667.75;10483935;28;20044;-81
2022/11/22 20:48:02;;;;;;;25.83;20.73;;;;;;;2.14;100.00;98674.59;10506867;28;20037;-80
2022/11/22 20:53:04;;;;;;;27.40;21.45;;;;;;;1.94;100.00;98672.38;10505508;28;20044;-81
2022/11/22 20:58:06;;;;;;;23.55;21.02;;;;;;;1.91;100.00;98673.28;10493340;28;20044;-81
2022/11/22 21:03:08;;;;;;;23.48;20.95;;;;;;;2.03;100.00;98667.84;10525533;28;20047;-82
2022/11/22 21:08:09;;;;;;;28.52;22.38;;;;;;;2.16;100.00;98678.84;10527111;28;20040;-83
2022/11/22 21:13:14;;;;;;;26.60;21.80;;;;;;;1.87;100.00;98673.38;10505738;28;20093;-83
2022/11/22 21:18:18;;;;;;;26.55;22.60;;;;;;;1.79;100.00;98680.44;10525854;28;20044;-81
2022/11/22 21:23:27;;;;;;;30.52;22.35;;;;;;;1.66;100.00;98669.44;10522166;28;20045;-82
2022/11/22 21:28:29;;;;;;;39.97;24.20;;;;;;;1.74;100.00;98683.97;10521580;28;20040;-85
2022/11/22 21:33:32;;;;;;;35.50;24.55;;;;;;;1.89;100.00;98682.81;10504331;28;20067;-84
2022/11/22 21:38:34;;;;;;;29.38;23.52;;;;;;;1.82;100.00;98685.56;10520834;28;20536;-84
2022/11/22 21:43:36;;;;;;;39.67;25.35;;;;;;;1.87;100.00;98675.97;10503157;28;20035;-85
2022/11/22 21:48:38;;;;;;;35.80;23.90;;;;;;;1.82;100.00;98678.66;10503300;28;20053;-83
2022/11/22 21:53:40;;;;;;;38.45;25.30;;;;;;;1.91;100.00;98683.66;10501361;28;20039;-84
2022/11/22 21:58:42;;;;;;;36.50;25.92;;;;;;;2.05;100.00;98678.22;10485689;28;20044;-82
2022/11/22 22:03:44;;;;;;;36.40;25.10;;;;;;;2.09;100.00;98685.06;10512597;28;20048;-83
2022/11/22 22:08:46;;;;;;;38.47;25.88;;;;;;;1.94;100.00;98678.41;10501436;28;20044;-82
2022/11/22 22:13:48;;;;;;;37.15;25.80;;;;;;;1.99;100.00;98680.91;10493947;28;20043;-83
2022/11/22 22:18:49;;;;;;;35.72;25.38;;;;;;;2.36;100.00;98691.44;10512965;28;20037;-84
2022/11/22 22:23:52;;;;;;;32.20;25.25;;;;;;;2.34;100.00;98692.34;10499563;28;20094;-82
2022/11/22 22:28:54;;;;;;;36.45;25.33;;;;;;;2.36;100.00;98694.03;10485764;28;20056;-83
2022/11/22 22:33:56;;;;;;;37.10;24.67;;;;;;;2.32;100.00;98692.38;10550287;28;20031;-79
2022/11/22 22:38:58;;;;;;;33.15;24.95;;;;;;;2.18;100.00;98687.47;10550399;28;20025;-80
2022/11/22 22:44:00;;;;;;;32.03;24.83;;;;;;;2.42;100.00;98696.47;10514662;28;20123;-82
2022/11/22 22:49:02;;;;;;;24.40;21.83;;;;;;;2.31;100.00;98692.41;10545561;28;20052;-82
2022/11/22 22:54:04;;;;;;;31.30;22.67;;;;;;;2.44;100.00;98696.47;10500171;28;20118;-81
2022/11/22 22:59:06;;;;;;;29.42;22.15;;;;;;;2.23;100.00;98697.75;10511346;28;20041;-81
2022/11/22 23:04:08;;;;;;;30.90;21.65;;;;;;;2.22;100.00;98691.72;10489616;28;20040;-83
2022/11/22 23:09:11;;;;;;;29.20;21.10;;;;;;;2.19;100.00;98693.50;10512122;28;20068;-82
2022/11/22 23:14:15;;;;;;;34.40;23.33;;;;;;;2.21;100.00;98702.09;10530644;28;20041;-83
2022/11/22 23:19:16;;;;;;;30.40;23.35;;;;;;;2.30;100.00;98707.09;10515877;28;20078;-81
2022/11/22 23:24:18;;;;;;;23.42;21.08;;;;;;;2.14;100.00;98708.28;10531665;28;20041;-81
2022/11/22 23:29:20;;;;;;;26.85;21.25;;;;;;;2.30;100.00;98701.91;10528193;28;20068;-81
2022/11/22 23:34:21;;;;;;;28.73;22.10;;;;;;;1.99;100.00;98705.09;10493881;28;20033;-81
2022/11/22 23:39:23;;;;;;;26.73;21.65;;;;;;;1.99;100.00;98699.94;10511935;28;20048;-80